createdAt,value
2019-02-20T00:01:05.631Z,3.80
2019-02-20T00:03:44.471Z,4.10
2019-02-20T00:06:18.564Z,4.03
2019-02-20T00:08:53.019Z,4.30
2019-02-20T00:11:28.223Z,4.93
2019-02-20T00:14:03.219Z,5.03
2019-02-20T00:16:36.786Z,4.67
2019-02-20T00:19:11.225Z,4.87
2019-02-20T00:21:44.976Z,4.50
2019-02-20T00:24:18.592Z,4.67
2019-02-20T00:26:51.966Z,5.50
2019-02-20T00:29:24.735Z,5.13
2019-02-20T00:32:00.020Z,6.27
2019-02-20T00:34:33.719Z,4.93
2019-02-20T00:37:07.634Z,4.30
2019-02-20T00:39:43.578Z,4.30
2019-02-20T00:42:16.874Z,4.70
2019-02-20T00:44:51.313Z,5.17
2019-02-20T00:47:45.760Z,5.30
2019-02-20T00:50:22.153Z,5.27
2019-02-20T00:53:03.226Z,5.03
2019-02-20T00:55:36.930Z,4.90
2019-02-20T00:58:10.050Z,4.80
2019-02-20T01:00:44.955Z,4.57
2019-02-20T01:03:23.057Z,4.50
2019-02-20T01:05:56.759Z,4.73
2019-02-20T01:08:31.389Z,4.80
2019-02-20T01:11:05.611Z,5.00
2019-02-20T01:13:39.920Z,5.43
2019-02-20T01:16:14.557Z,6.17
2019-02-20T01:18:49.888Z,5.53
2019-02-20T01:21:23.815Z,5.20
2019-02-20T01:23:57.409Z,5.43
2019-02-20T01:26:29.957Z,5.47
2019-02-20T01:29:03.995Z,4.83
2019-02-20T01:31:37.798Z,4.40
2019-02-20T01:34:12.624Z,5.90
2019-02-20T01:36:46.145Z,5.00
2019-02-20T01:39:19.021Z,5.20
2019-02-20T01:41:53.327Z,4.50
2019-02-20T01:44:27.030Z,4.90
2019-02-20T01:47:03.007Z,4.70
2019-02-20T01:49:37.514Z,5.20
2019-02-20T01:52:11.661Z,4.27
2019-02-20T01:54:47.282Z,3.23
2019-02-20T01:57:21.078Z,4.10
2019-02-20T01:59:54.481Z,3.47
2019-02-20T02:02:28.852Z,2.93
2019-02-20T02:05:02.669Z,3.60
2019-02-20T02:07:36.002Z,3.80
2019-02-20T02:10:12.608Z,4.17
2019-02-20T02:12:48.101Z,4.10
2019-02-20T02:15:24.829Z,4.20
2019-02-20T02:17:58.805Z,4.43
2019-02-20T02:20:33.432Z,3.73
2019-02-20T02:23:07.030Z,3.90
2019-02-20T02:25:41.958Z,3.73
2019-02-20T02:28:15.764Z,2.80
2019-02-20T02:30:53.546Z,3.50
2019-02-20T02:33:28.190Z,3.10
2019-02-20T02:36:01.395Z,3.50
2019-02-20T02:38:34.210Z,3.27
2019-02-20T02:41:09.104Z,3.43
2019-02-20T02:43:43.519Z,3.40
2019-02-20T02:46:19.293Z,3.00
2019-02-20T02:48:55.644Z,2.90
2019-02-20T02:51:28.741Z,3.67
2019-02-20T02:54:02.170Z,3.27
2019-02-20T02:56:35.839Z,3.20
2019-02-20T02:59:08.822Z,3.47
2019-02-20T03:01:44.273Z,3.30
2019-02-20T03:04:19.106Z,3.97
2019-02-20T03:06:53.832Z,2.97
2019-02-20T03:09:30.289Z,3.20
2019-02-20T03:12:04.517Z,3.33
2019-02-20T03:14:38.622Z,3.47
2019-02-20T03:17:12.750Z,3.53
2019-02-20T03:19:45.846Z,3.17
2019-02-20T03:22:23.433Z,3.50
2019-02-20T03:24:57.527Z,2.83
2019-02-20T03:27:30.922Z,3.87
2019-02-20T03:30:05.408Z,3.70
2019-02-20T03:32:38.017Z,3.57
2019-02-20T03:35:11.118Z,3.13
2019-02-20T03:37:45.029Z,3.80
2019-02-20T03:40:17.850Z,4.30
2019-02-20T03:42:50.691Z,3.83
2019-02-20T03:45:23.213Z,3.90
2019-02-20T03:47:55.836Z,5.23
2019-02-20T03:50:28.525Z,4.17
2019-02-20T03:53:01.199Z,4.37
2019-02-20T03:55:33.894Z,3.90
2019-02-20T03:58:06.263Z,3.60
2019-02-20T04:00:38.737Z,4.23
2019-02-20T04:03:11.225Z,3.97
2019-02-20T04:05:43.523Z,3.70
2019-02-20T04:08:15.924Z,3.23
2019-02-20T04:10:48.455Z,3.87
2019-02-20T04:13:20.948Z,4.83
2019-02-20T04:15:53.454Z,4.60
2019-02-20T04:18:25.851Z,3.83
2019-02-20T04:20:58.640Z,4.00
2019-02-20T04:23:31.145Z,4.03
2019-02-20T04:26:05.562Z,3.20
2019-02-20T04:28:38.110Z,4.00
2019-02-20T04:31:10.581Z,4.10
2019-02-20T04:33:42.958Z,4.23
2019-02-20T04:36:15.498Z,4.60
2019-02-20T04:38:47.908Z,4.40
2019-02-20T04:41:20.555Z,3.47
2019-02-20T04:43:53.163Z,3.77
2019-02-20T04:46:25.596Z,3.97
2019-02-20T04:48:57.936Z,4.60
2019-02-20T04:51:30.358Z,4.53
2019-02-20T04:54:12.689Z,4.43
2019-02-20T04:56:38.909Z,4.50
2019-02-20T04:59:12.241Z,4.27
2019-02-20T05:01:44.651Z,4.27
2019-02-20T05:04:17.161Z,4.30
2019-02-20T05:06:49.639Z,4.57
2019-02-20T05:09:22.145Z,4.30
2019-02-20T05:11:55.774Z,3.87
2019-02-20T05:14:28.285Z,4.10
2019-02-20T05:17:00.764Z,4.23
2019-02-20T05:19:33.283Z,5.37
2019-02-20T05:22:05.717Z,6.17
2019-02-20T05:24:38.113Z,5.77
2019-02-20T05:27:10.388Z,6.37
2019-02-20T05:29:42.577Z,5.47
2019-02-20T05:32:15.168Z,4.70
2019-02-20T05:34:48.577Z,4.60
2019-02-20T05:37:22.613Z,4.37
2019-02-20T05:39:56.073Z,5.10
2019-02-20T05:42:29.919Z,5.10
2019-02-20T05:45:03.244Z,4.47
2019-02-20T05:47:36.198Z,5.60
2019-02-20T05:50:13.650Z,5.70
2019-02-20T05:52:50.147Z,6.07
2019-02-20T05:55:25.715Z,5.43
2019-02-20T05:58:00.028Z,5.00
2019-02-20T06:00:32.910Z,4.90
2019-02-20T06:03:11.918Z,5.73
2019-02-20T06:05:46.769Z,5.53
2019-02-20T06:08:21.195Z,5.30
2019-02-20T06:10:54.665Z,5.40
2019-02-20T06:13:27.061Z,5.50
2019-02-20T06:16:01.381Z,5.60
2019-02-20T06:18:33.926Z,5.90
2019-02-20T06:21:06.258Z,6.57
2019-02-20T06:23:38.641Z,6.23
2019-02-20T06:26:14.163Z,6.60
2019-02-20T06:28:47.769Z,6.70
2019-02-20T06:31:21.105Z,6.63
2019-02-20T06:33:53.663Z,6.97
2019-02-20T06:36:28.759Z,6.50
2019-02-20T06:39:01.528Z,6.27
2019-02-20T06:41:39.259Z,5.57
2019-02-20T06:44:09.932Z,5.47
2019-02-20T06:46:43.592Z,5.53
2019-02-20T06:49:15.886Z,6.13
2019-02-20T06:51:48.216Z,5.90
2019-02-20T06:54:20.691Z,6.27
2019-02-20T06:56:53.098Z,6.40
2019-02-20T06:59:26.828Z,8.17
2019-02-20T07:01:59.166Z,5.63
2019-02-20T07:04:31.601Z,7.13
2019-02-20T07:07:08.611Z,6.80
2019-02-20T07:09:42.674Z,5.33
2019-02-20T07:12:16.929Z,7.37
2019-02-20T07:14:54.205Z,5.60
2019-02-20T07:17:34.121Z,6.53
2019-02-20T07:20:08.486Z,6.60
2019-02-20T07:22:48.923Z,6.23
2019-02-20T07:25:23.024Z,6.83
2019-02-20T07:27:57.100Z,6.30
2019-02-20T07:30:29.576Z,6.80
2019-02-20T07:33:02.123Z,6.97
2019-02-20T07:35:34.532Z,6.23
2019-02-20T07:38:06.928Z,6.33
2019-02-20T07:40:39.363Z,5.67
2019-02-20T07:43:11.642Z,6.00
2019-02-20T07:45:44.170Z,6.90
2019-02-20T07:48:17.521Z,7.27
2019-02-20T07:50:54.231Z,6.93
2019-02-20T07:53:24.285Z,7.40
2019-02-20T07:55:56.769Z,7.07
2019-02-20T07:58:29.179Z,6.40
2019-02-20T08:01:02.142Z,6.73
2019-02-20T08:03:34.448Z,6.23
2019-02-20T08:06:06.754Z,7.60
2019-02-20T08:08:39.237Z,6.73
2019-02-20T08:11:12.315Z,6.63
2019-02-20T08:13:44.759Z,6.33
2019-02-20T08:16:18.188Z,6.40
2019-02-20T08:18:50.769Z,6.40
2019-02-20T08:21:23.304Z,5.50
2019-02-20T08:23:55.556Z,5.70
2019-02-20T08:26:28.319Z,5.70
2019-02-20T08:29:00.735Z,6.23
2019-02-20T08:31:33.244Z,6.17
2019-02-20T08:36:34.589Z,6.07
2019-02-20T08:39:06.979Z,6.97
2019-02-20T08:41:40.891Z,6.50
2019-02-20T08:44:14.572Z,6.33
2019-02-20T08:46:47.811Z,6.57
2019-02-20T08:49:20.288Z,6.37
2019-02-20T08:51:52.698Z,6.90
2019-02-20T08:54:25.214Z,7.43
2019-02-20T08:56:57.669Z,6.27
2019-02-20T08:59:31.169Z,6.63
2019-02-20T09:02:03.486Z,7.00
2019-02-20T09:04:35.881Z,6.40
2019-02-20T09:07:08.298Z,7.50
2019-02-20T09:09:41.691Z,7.47
2019-02-20T09:12:14.043Z,7.30
2019-02-20T09:14:46.369Z,8.60
2019-02-20T09:17:18.802Z,6.40
2019-02-20T09:19:51.191Z,7.33
2019-02-20T09:22:23.767Z,7.17
2019-02-20T09:24:56.343Z,6.73
2019-02-20T09:27:29.023Z,6.20
2019-02-20T09:30:02.980Z,5.93
2019-02-20T09:32:35.408Z,6.40
2019-02-20T09:35:07.926Z,6.00
2019-02-20T09:37:40.195Z,6.07
2019-02-20T09:40:20.921Z,6.77
2019-02-20T09:42:54.508Z,8.10
2019-02-20T09:45:27.266Z,10.27
2019-02-20T09:47:59.985Z,9.00
2019-02-20T09:50:32.587Z,7.53
2019-02-20T09:53:04.860Z,6.27
2019-02-20T09:55:37.414Z,8.17
2019-02-20T09:58:09.887Z,6.30
2019-02-20T10:00:43.936Z,5.37
2019-02-20T10:03:16.411Z,5.93
2019-02-20T10:05:48.778Z,7.37
2019-02-20T10:08:22.266Z,6.60
2019-02-20T10:10:54.813Z,5.70
2019-02-20T10:13:27.389Z,5.43
2019-02-20T10:15:59.807Z,5.80
2019-02-20T10:18:32.483Z,5.23
2019-02-20T10:21:04.836Z,5.33
2019-02-20T10:23:37.287Z,5.00
2019-02-20T10:26:09.791Z,5.60
2019-02-20T10:28:42.238Z,4.50
2019-02-20T10:31:15.603Z,5.07
2019-02-20T10:33:47.859Z,6.60
2019-02-20T10:36:20.243Z,5.13
2019-02-20T10:38:52.545Z,4.90
2019-02-20T10:41:24.879Z,4.73
2019-02-20T10:43:57.399Z,5.80
2019-02-20T10:46:29.844Z,4.80
2019-02-20T10:49:02.344Z,5.70
2019-02-20T10:51:34.728Z,4.97
2019-02-20T10:54:07.093Z,5.13
2019-02-20T10:56:39.455Z,4.67
2019-02-20T10:59:11.937Z,4.90
2019-02-20T11:01:44.727Z,5.33
2019-02-20T11:04:17.016Z,5.30
2019-02-20T11:06:49.673Z,5.10
2019-02-20T11:09:22.145Z,5.20
2019-02-20T11:11:54.651Z,5.87
2019-02-20T11:14:27.212Z,5.90
2019-02-20T11:16:59.779Z,4.53
2019-02-20T11:19:32.460Z,5.20
2019-02-20T11:22:05.970Z,4.73
2019-02-20T11:24:39.562Z,4.87
2019-02-20T11:27:12.096Z,4.93
2019-02-20T11:29:44.613Z,5.33
2019-02-20T11:32:16.919Z,4.77
2019-02-20T11:34:49.345Z,5.67
2019-02-20T11:37:21.832Z,4.63
2019-02-20T11:39:55.149Z,6.37
2019-02-20T11:42:28.596Z,4.83
2019-02-20T11:45:01.016Z,6.13
2019-02-20T11:47:33.664Z,6.87
2019-02-20T11:50:07.805Z,4.97
2019-02-20T11:52:40.458Z,5.20
2019-02-20T11:55:16.962Z,4.13
2019-02-20T11:57:49.530Z,5.10
2019-02-20T12:00:23.715Z,5.77
2019-02-20T12:02:56.079Z,5.77
2019-02-20T12:05:28.583Z,4.57
2019-02-20T12:08:00.955Z,5.17
2019-02-20T12:10:33.351Z,9.17
2019-02-20T12:13:08.768Z,5.00
2019-02-20T12:15:44.109Z,4.20
2019-02-20T12:18:17.552Z,4.07
2019-02-20T12:20:50.186Z,4.23
2019-02-20T12:23:22.762Z,4.80
2019-02-20T12:25:55.955Z,5.07
2019-02-20T12:28:28.329Z,4.57
2019-02-20T12:31:00.764Z,4.40
2019-02-20T12:33:33.281Z,4.33
2019-02-20T12:36:05.860Z,5.33
2019-02-20T12:38:38.451Z,5.87
2019-02-20T12:41:11.045Z,4.63
2019-02-20T12:43:43.690Z,4.63
2019-02-20T12:46:16.274Z,4.90
2019-02-20T12:48:50.733Z,4.67
2019-02-20T12:51:22.959Z,5.40
2019-02-20T12:53:55.441Z,4.30
2019-02-20T12:56:28.009Z,6.13
2019-02-20T12:59:07.603Z,5.10
2019-02-20T13:01:39.819Z,4.70
2019-02-20T13:04:12.297Z,4.30
2019-02-20T13:06:44.790Z,4.90
2019-02-20T13:09:18.478Z,4.40
2019-02-20T13:11:50.795Z,4.33
2019-02-20T13:14:23.121Z,5.00
2019-02-20T13:16:55.589Z,5.40
2019-02-20T13:19:28.067Z,5.20
2019-02-20T13:22:00.767Z,4.93
2019-02-20T13:24:33.210Z,4.90
2019-02-20T13:27:07.891Z,5.63
2019-02-20T13:29:39.918Z,6.13
2019-02-20T13:32:13.468Z,6.27
2019-02-20T13:34:45.820Z,4.70
2019-02-20T13:37:18.362Z,5.00
2019-02-20T13:39:52.144Z,5.93
2019-02-20T13:42:25.053Z,4.90
2019-02-20T13:44:57.658Z,5.13
2019-02-20T13:47:30.020Z,5.33
2019-02-20T13:50:02.426Z,5.33
2019-02-20T13:52:34.735Z,5.00
2019-02-20T13:55:07.284Z,5.60
2019-02-20T13:57:39.813Z,5.87
2019-02-20T14:00:14.237Z,8.60
2019-02-20T14:02:46.589Z,5.23
2019-02-20T14:05:20.418Z,10.63
2019-02-20T14:07:53.742Z,5.00
2019-02-20T14:10:27.297Z,4.83
2019-02-20T14:12:59.546Z,5.00
2019-02-20T14:15:31.804Z,5.83
2019-02-20T14:18:04.450Z,6.03
2019-02-20T14:20:36.991Z,5.03
2019-02-20T14:23:11.336Z,6.70
2019-02-20T14:25:44.447Z,4.53
2019-02-20T14:28:17.079Z,4.60
2019-02-20T14:30:50.072Z,5.97
2019-02-20T14:33:22.432Z,5.03
2019-02-20T14:35:54.770Z,5.40
2019-02-20T14:38:27.386Z,5.13
2019-02-20T14:40:59.844Z,5.17
2019-02-20T14:43:32.234Z,5.40
2019-02-20T14:46:04.910Z,5.00
2019-02-20T14:48:37.242Z,5.17
2019-02-20T14:51:10.370Z,4.80
2019-02-20T14:53:42.953Z,5.50
2019-02-20T14:56:15.316Z,5.40
2019-02-20T14:58:48.881Z,6.43
2019-02-20T15:01:21.289Z,5.57
2019-02-20T15:03:54.226Z,6.70
2019-02-20T15:06:26.765Z,6.97
2019-02-20T15:09:00.670Z,6.30
2019-02-20T15:11:33.182Z,10.23
2019-02-20T15:14:05.486Z,5.77
2019-02-20T15:16:37.861Z,6.07
2019-02-20T15:19:10.398Z,7.57
2019-02-20T15:21:43.505Z,6.57
2019-02-20T15:24:16.847Z,6.70
2019-02-20T15:26:50.264Z,6.70
2019-02-20T15:29:23.029Z,7.07
2019-02-20T15:31:55.452Z,6.43
2019-02-20T15:34:27.854Z,6.53
2019-02-20T15:37:00.248Z,6.23
2019-02-20T15:39:32.620Z,5.80
2019-02-20T15:42:06.149Z,5.97
2019-02-20T15:44:38.489Z,6.40
2019-02-20T15:47:10.661Z,6.37
2019-02-20T15:49:45.500Z,5.47
2019-02-20T15:52:17.965Z,5.50
2019-02-20T15:54:50.411Z,6.73
2019-02-20T15:57:22.925Z,5.50
2019-02-20T15:59:56.596Z,6.40
2019-02-20T16:02:31.799Z,6.97
2019-02-20T16:05:10.206Z,7.67
2019-02-20T16:07:45.337Z,7.03
2019-02-20T16:10:17.781Z,5.77
2019-02-20T16:12:53.789Z,8.40
2019-02-20T16:15:27.154Z,7.97
2019-02-20T16:18:05.491Z,8.13
2019-02-20T16:20:39.844Z,8.37
2019-02-20T16:23:14.083Z,7.90
2019-02-20T16:25:46.559Z,7.70
2019-02-20T16:28:19.653Z,7.90
2019-02-20T16:30:52.912Z,7.53
2019-02-20T16:33:25.419Z,7.20
2019-02-20T16:35:59.766Z,6.80
2019-02-20T16:38:32.314Z,8.27
2019-02-20T16:41:04.986Z,8.03
2019-02-20T16:43:40.140Z,7.83
2019-02-20T16:46:12.607Z,6.80
2019-02-20T16:48:45.263Z,9.50
2019-02-20T16:51:20.964Z,8.97
2019-02-20T16:53:56.457Z,9.60
2019-02-20T16:56:32.683Z,7.30
2019-02-20T16:59:10.452Z,9.17
2019-02-20T17:01:43.328Z,8.30
2019-02-20T17:04:20.018Z,7.30
2019-02-20T17:06:53.498Z,7.80
2019-02-20T17:09:26.138Z,7.50
2019-02-20T17:12:01.510Z,6.93
2019-02-20T17:14:36.582Z,7.27
2019-02-20T17:17:09.238Z,7.37
2019-02-20T17:19:41.609Z,7.50
2019-02-20T17:22:16.029Z,8.63
2019-02-20T17:24:57.627Z,7.40
2019-02-20T17:27:31.687Z,8.10
2019-02-20T17:30:04.316Z,8.40
2019-02-20T17:32:43.666Z,8.30
2019-02-20T17:35:17.460Z,6.80
2019-02-20T17:37:51.823Z,8.27
2019-02-20T17:40:25.895Z,8.37
2019-02-20T17:42:58.463Z,8.10
2019-02-20T17:45:37.702Z,7.37
2019-02-20T17:48:12.837Z,7.00
2019-02-20T17:50:46.373Z,6.47
2019-02-20T17:53:19.321Z,7.40
2019-02-20T17:55:52.003Z,7.43
2019-02-20T17:58:25.604Z,9.03
2019-02-20T18:01:05.449Z,8.40
2019-02-20T18:03:36.394Z,10.00
2019-02-20T18:06:10.351Z,8.53
2019-02-20T18:08:42.652Z,9.60
2019-02-20T18:11:15.317Z,8.50
2019-02-20T18:13:47.927Z,8.63
2019-02-20T18:16:23.575Z,9.60
2019-02-20T18:18:56.302Z,9.57
2019-02-20T18:21:28.504Z,9.27
2019-02-20T18:24:00.796Z,9.27
2019-02-20T18:26:34.197Z,10.13
2019-02-20T18:29:06.669Z,8.93
2019-02-20T18:31:40.098Z,9.03
2019-02-20T18:34:13.358Z,10.17
2019-02-20T18:36:45.632Z,8.53
2019-02-20T18:39:18.687Z,8.37
2019-02-20T18:41:51.508Z,7.50
2019-02-20T18:44:24.182Z,7.27
2019-02-20T18:46:56.774Z,8.33
2019-02-20T18:49:29.243Z,8.73
2019-02-20T18:52:01.684Z,7.77
2019-02-20T18:54:34.696Z,8.20
2019-02-20T18:57:08.124Z,7.70
2019-02-20T18:59:41.521Z,8.43
2019-02-20T19:02:13.887Z,8.37
2019-02-20T19:04:47.085Z,8.70
2019-02-20T19:07:19.394Z,8.30
2019-02-20T19:09:52.119Z,8.00
2019-02-20T19:12:38.422Z,8.40
2019-02-20T19:15:17.442Z,8.23
2019-02-20T19:18:08.363Z,7.93
2019-02-20T19:20:45.604Z,7.33
2019-02-20T19:23:22.749Z,7.00
2019-02-20T19:26:03.322Z,7.23
2019-02-20T19:28:46.402Z,7.53
2019-02-20T19:31:23.688Z,7.87
2019-02-20T19:34:10.307Z,7.63
2019-02-20T19:37:01.142Z,7.40
2019-02-20T19:39:35.884Z,7.90
2019-02-20T19:42:10.043Z,7.43
2019-02-20T19:44:44.175Z,6.30
2019-02-20T19:47:36.733Z,7.17
2019-02-20T19:50:12.350Z,7.53
2019-02-20T19:52:53.155Z,8.63
2019-02-20T19:55:27.861Z,7.53
2019-02-20T19:58:11.295Z,7.10
2019-02-20T20:00:57.519Z,8.50
2019-02-20T20:03:34.460Z,8.53
2019-02-20T20:06:24.475Z,6.60
2019-02-20T20:09:00.590Z,8.17
2019-02-20T20:11:51.605Z,7.37
2019-02-20T20:14:26.612Z,7.07
2019-02-20T20:17:04.939Z,8.33
2019-02-20T20:19:51.400Z,8.50
2019-02-20T20:22:28.872Z,7.60
2019-02-20T20:25:05.532Z,8.73
2019-02-20T20:27:42.381Z,8.23
2019-02-20T20:30:33.244Z,7.87
2019-02-20T20:33:10.325Z,9.57
2019-02-20T20:35:47.774Z,8.60
2019-02-20T20:38:38.801Z,7.60
2019-02-20T20:41:13.563Z,7.10
2019-02-20T20:43:57.118Z,7.07
2019-02-20T20:46:42.946Z,7.57
2019-02-20T20:49:20.335Z,7.87
2019-02-20T20:52:02.543Z,7.43
2019-02-20T20:54:39.423Z,7.13
2019-02-20T20:57:19.470Z,6.90
2019-02-20T20:59:53.923Z,6.97
2019-02-20T21:02:28.209Z,9.30
2019-02-20T21:05:05.440Z,8.90
2019-02-20T21:07:43.429Z,9.57
2019-02-20T21:10:17.520Z,10.27
2019-02-20T21:13:06.954Z,9.83
2019-02-20T21:15:57.762Z,9.20
2019-02-20T21:18:50.228Z,8.37
2019-02-20T21:21:31.363Z,6.47
2019-02-20T21:24:09.636Z,6.33
2019-02-20T21:26:44.246Z,6.47
2019-02-20T21:29:28.020Z,6.20
2019-02-20T21:32:09.521Z,8.40
2019-02-20T21:34:50.748Z,6.03
2019-02-20T21:37:33.872Z,6.27
2019-02-20T21:40:07.959Z,7.87
2019-02-20T21:42:43.927Z,10.60
2019-02-20T21:45:24.618Z,8.80
2019-02-20T21:47:58.912Z,10.33
2019-02-20T21:50:33.026Z,10.40
2019-02-20T21:53:26.622Z,9.40
2019-02-20T21:56:19.683Z,9.50
2019-02-20T21:59:12.120Z,8.93
2019-02-20T22:01:53.781Z,8.70
2019-02-20T22:04:27.978Z,9.03
2019-02-20T22:07:17.471Z,8.93
2019-02-20T22:10:06.770Z,9.30
2019-02-20T22:12:51.235Z,9.00
2019-02-20T22:15:31.154Z,8.30
2019-02-20T22:18:08.171Z,8.57
2019-02-20T22:20:42.171Z,8.30
2019-02-20T22:23:33.038Z,7.97
2019-02-20T22:26:16.475Z,7.37
2019-02-20T22:28:50.525Z,7.20
2019-02-20T22:31:24.808Z,6.73
2019-02-20T22:34:01.679Z,6.47
2019-02-20T22:36:44.606Z,6.57
2019-02-20T22:39:18.819Z,6.40
2019-02-20T22:42:09.935Z,6.93
2019-02-20T22:45:00.563Z,6.73
2019-02-20T22:47:41.744Z,7.00
2019-02-20T22:50:24.969Z,6.70
2019-02-20T22:52:58.849Z,6.40
2019-02-20T22:55:38.984Z,6.63
2019-02-20T22:58:13.275Z,7.03
2019-02-20T23:00:51.148Z,6.70
2019-02-20T23:03:30.522Z,5.97
2019-02-20T23:06:08.431Z,6.40
2019-02-20T23:08:45.306Z,5.50
2019-02-20T23:11:22.627Z,5.93
2019-02-20T23:13:57.837Z,6.27
2019-02-20T23:16:30.354Z,6.73
2019-02-20T23:19:02.537Z,6.43
2019-02-20T23:21:34.909Z,6.23
2019-02-20T23:24:07.122Z,7.07
2019-02-20T23:26:39.351Z,6.60
2019-02-20T23:29:11.660Z,7.40
2019-02-20T23:31:44.172Z,7.53
2019-02-20T23:34:16.278Z,7.87
2019-02-20T23:36:48.562Z,8.23
2019-02-20T23:39:20.669Z,7.00
2019-02-20T23:41:52.798Z,5.77
2019-02-20T23:44:24.869Z,5.70
2019-02-20T23:46:57.188Z,6.50
2019-02-20T23:49:29.333Z,7.07
2019-02-20T23:52:04.433Z,8.47
2019-02-20T23:54:37.931Z,8.10
2019-02-20T23:57:11.240Z,7.53
2019-02-20T23:59:44.902Z,7.37
